sensor_id;sensor_type;location;lat;lon;timestamp;P1;durP1;ratioP1;P2;durP2;ratioP2
37299;SDS011;23184;51.902;12.836;2023-02-07T00:02:14;31.33;;;13.55;;
37299;SDS011;23184;51.902;12.836;2023-02-07T00:04:39;30.55;;;13.48;;
37299;SDS011;23184;51.902;12.836;2023-02-07T00:07:05;26.90;;;11.95;;
37299;SDS011;23184;51.902;12.836;2023-02-07T00:09:30;30.08;;;12.25;;
37299;SDS011;23184;51.902;12.836;2023-02-07T00:11:56;29.52;;;12.27;;
37299;SDS011;23184;51.902;12.836;2023-02-07T00:14:21;27.08;;;11.13;;
37299;SDS011;23184;51.902;12.836;2023-02-07T00:16:47;31.17;;;12.35;;
37299;SDS011;23184;51.902;12.836;2023-02-07T00:19:13;29.45;;;12.55;;
37299;SDS011;23184;51.902;12.836;2023-02-07T00:21:38;25.70;;;11.50;;
37299;SDS011;23184;51.902;12.836;2023-02-07T00:24:04;29.35;;;13.05;;
37299;SDS011;23184;51.902;12.836;2023-02-07T00:26:30;32.50;;;12.93;;
37299;SDS011;23184;51.902;12.836;2023-02-07T00:28:56;29.42;;;12.98;;
37299;SDS011;23184;51.902;12.836;2023-02-07T00:31:26;33.63;;;12.55;;
37299;SDS011;23184;51.902;12.836;2023-02-07T00:33:54;29.02;;;11.95;;
37299;SDS011;23184;51.902;12.836;2023-02-07T00:36:22;36.38;;;12.32;;
37299;SDS011;23184;51.902;12.836;2023-02-07T00:38:48;31.55;;;11.77;;
37299;SDS011;23184;51.902;12.836;2023-02-07T00:41:15;31.48;;;12.48;;
37299;SDS011;23184;51.902;12.836;2023-02-07T00:43:42;31.42;;;13.32;;
37299;SDS011;23184;51.902;12.836;2023-02-07T00:46:09;25.70;;;11.50;;
37299;SDS011;23184;51.902;12.836;2023-02-07T00:48:35;24.17;;;10.02;;
37299;SDS011;23184;51.902;12.836;2023-02-07T00:51:01;29.15;;;11.80;;
37299;SDS011;23184;51.902;12.836;2023-02-07T00:53:27;29.67;;;11.95;;
37299;SDS011;23184;51.902;12.836;2023-02-07T00:55:53;28.45;;;10.75;;
37299;SDS011;23184;51.902;12.836;2023-02-07T00:58:19;24.77;;;10.32;;
37299;SDS011;23184;51.902;12.836;2023-02-07T01:00:45;28.52;;;11.10;;
37299;SDS011;23184;51.902;12.836;2023-02-07T01:03:11;25.50;;;10.40;;
37299;SDS011;23184;51.902;12.836;2023-02-07T01:05:37;32.72;;;12.02;;
37299;SDS011;23184;51.902;12.836;2023-02-07T01:08:03;29.65;;;11.13;;
37299;SDS011;23184;51.902;12.836;2023-02-07T01:10:29;34.05;;;12.27;;
37299;SDS011;23184;51.902;12.836;2023-02-07T01:12:55;30.77;;;12.27;;
37299;SDS011;23184;51.902;12.836;2023-02-07T01:15:20;33.05;;;13.30;;
37299;SDS011;23184;51.902;12.836;2023-02-07T01:17:46;27.75;;;11.15;;
37299;SDS011;23184;51.902;12.836;2023-02-07T01:20:11;29.73;;;11.88;;
37299;SDS011;23184;51.902;12.836;2023-02-07T01:22:37;31.67;;;12.48;;
37299;SDS011;23184;51.902;12.836;2023-02-07T01:25:04;31.42;;;11.82;;
37299;SDS011;23184;51.902;12.836;2023-02-07T01:27:30;25.27;;;11.43;;
37299;SDS011;23184;51.902;12.836;2023-02-07T01:29:57;27.92;;;11.18;;
37299;SDS011;23184;51.902;12.836;2023-02-07T01:32:22;23.33;;;10.23;;
37299;SDS011;23184;51.902;12.836;2023-02-07T01:34:48;23.42;;;10.35;;
37299;SDS011;23184;51.902;12.836;2023-02-07T01:37:13;25.33;;;10.80;;
37299;SDS011;23184;51.902;12.836;2023-02-07T01:39:39;25.35;;;9.60;;
37299;SDS011;23184;51.902;12.836;2023-02-07T01:42:04;26.60;;;9.60;;
37299;SDS011;23184;51.902;12.836;2023-02-07T01:47:01;26.10;;;9.82;;
37299;SDS011;23184;51.902;12.836;2023-02-07T01:49:28;26.92;;;10.93;;
37299;SDS011;23184;51.902;12.836;2023-02-07T01:51:59;27.10;;;11.07;;
37299;SDS011;23184;51.902;12.836;2023-02-07T01:54:36;30.15;;;10.30;;
37299;SDS011;23184;51.902;12.836;2023-02-07T01:57:04;28.63;;;11.20;;
37299;SDS011;23184;51.902;12.836;2023-02-07T01:59:32;32.17;;;13.93;;
37299;SDS011;23184;51.902;12.836;2023-02-07T02:02:01;27.60;;;11.88;;
37299;SDS011;23184;51.902;12.836;2023-02-07T02:04:28;35.70;;;12.38;;
37299;SDS011;23184;51.902;12.836;2023-02-07T02:06:54;32.33;;;12.90;;
37299;SDS011;23184;51.902;12.836;2023-02-07T02:09:20;31.98;;;11.27;;
37299;SDS011;23184;51.902;12.836;2023-02-07T02:11:59;27.65;;;11.73;;
37299;SDS011;23184;51.902;12.836;2023-02-07T02:39:49;27.88;;;10.93;;
37299;SDS011;23184;51.902;12.836;2023-02-07T02:42:17;32.13;;;11.68;;
37299;SDS011;23184;51.902;12.836;2023-02-07T02:44:59;26.83;;;9.95;;
37299;SDS011;23184;51.902;12.836;2023-02-07T02:47:28;27.05;;;11.00;;
37299;SDS011;23184;51.902;12.836;2023-02-07T02:49:56;28.70;;;10.07;;
37299;SDS011;23184;51.902;12.836;2023-02-07T02:52:22;24.88;;;10.52;;
37299;SDS011;23184;51.902;12.836;2023-02-07T02:54:49;25.63;;;9.45;;
37299;SDS011;23184;51.902;12.836;2023-02-07T02:57:37;23.95;;;9.65;;
37299;SDS011;23184;51.902;12.836;2023-02-07T03:03:26;28.88;;;10.40;;
37299;SDS011;23184;51.902;12.836;2023-02-07T03:09:05;25.30;;;9.80;;
37299;SDS011;23184;51.902;12.836;2023-02-07T03:11:50;24.42;;;10.07;;
37299;SDS011;23184;51.902;12.836;2023-02-07T03:17:33;27.05;;;10.88;;
37299;SDS011;23184;51.902;12.836;2023-02-07T03:20:30;28.10;;;10.52;;
37299;SDS011;23184;51.902;12.836;2023-02-07T03:23:04;28.75;;;11.35;;
37299;SDS011;23184;51.902;12.836;2023-02-07T03:25:32;30.42;;;10.35;;
37299;SDS011;23184;51.902;12.836;2023-02-07T03:28:00;25.55;;;9.63;;
37299;SDS011;23184;51.902;12.836;2023-02-07T03:30:29;26.40;;;10.68;;
37299;SDS011;23184;51.902;12.836;2023-02-07T03:32:58;26.83;;;11.55;;
37299;SDS011;23184;51.902;12.836;2023-02-07T03:35:28;24.60;;;9.95;;
37299;SDS011;23184;51.902;12.836;2023-02-07T03:38:01;29.33;;;11.15;;
37299;SDS011;23184;51.902;12.836;2023-02-07T03:40:29;27.90;;;10.95;;
37299;SDS011;23184;51.902;12.836;2023-02-07T03:45:25;28.58;;;11.88;;
37299;SDS011;23184;51.902;12.836;2023-02-07T03:47:50;32.20;;;10.75;;
37299;SDS011;23184;51.902;12.836;2023-02-07T03:50:16;28.05;;;10.63;;
37299;SDS011;23184;51.902;12.836;2023-02-07T03:52:41;27.35;;;10.88;;
37299;SDS011;23184;51.902;12.836;2023-02-07T03:55:07;28.70;;;12.20;;
37299;SDS011;23184;51.902;12.836;2023-02-07T03:57:33;33.08;;;12.40;;
37299;SDS011;23184;51.902;12.836;2023-02-07T03:59:59;29.88;;;12.73;;
37299;SDS011;23184;51.902;12.836;2023-02-07T04:02:24;27.02;;;11.38;;
37299;SDS011;23184;51.902;12.836;2023-02-07T04:04:50;28.80;;;10.95;;
37299;SDS011;23184;51.902;12.836;2023-02-07T04:07:15;29.35;;;10.57;;
37299;SDS011;23184;51.902;12.836;2023-02-07T04:09:41;24.88;;;10.35;;
37299;SDS011;23184;51.902;12.836;2023-02-07T04:12:07;25.70;;;10.23;;
37299;SDS011;23184;51.902;12.836;2023-02-07T04:14:32;24.38;;;10.27;;
37299;SDS011;23184;51.902;12.836;2023-02-07T04:16:58;26.98;;;10.85;;
37299;SDS011;23184;51.902;12.836;2023-02-07T04:19:23;30.25;;;11.63;;
37299;SDS011;23184;51.902;12.836;2023-02-07T04:21:49;27.13;;;10.93;;
37299;SDS011;23184;51.902;12.836;2023-02-07T04:24:14;29.25;;;11.02;;
37299;SDS011;23184;51.902;12.836;2023-02-07T04:26:40;25.73;;;10.38;;
37299;SDS011;23184;51.902;12.836;2023-02-07T04:29:06;29.63;;;11.68;;
37299;SDS011;23184;51.902;12.836;2023-02-07T04:31:32;25.50;;;10.30;;
37299;SDS011;23184;51.902;12.836;2023-02-07T04:33:57;30.50;;;11.68;;
37299;SDS011;23184;51.902;12.836;2023-02-07T04:36:23;27.83;;;10.02;;
37299;SDS011;23184;51.902;12.836;2023-02-07T04:38:48;24.58;;;10.25;;
37299;SDS011;23184;51.902;12.836;2023-02-07T04:41:14;28.02;;;11.85;;
37299;SDS011;23184;51.902;12.836;2023-02-07T04:43:39;30.80;;;12.27;;
37299;SDS011;23184;51.902;12.836;2023-02-07T04:46:06;24.65;;;11.02;;
37299;SDS011;23184;51.902;12.836;2023-02-07T04:48:32;26.17;;;11.70;;
37299;SDS011;23184;51.902;12.836;2023-02-07T04:51:00;52.63;;;19.00;;
37299;SDS011;23184;51.902;12.836;2023-02-07T04:53:25;30.77;;;12.32;;
37299;SDS011;23184;51.902;12.836;2023-02-07T04:55:51;29.77;;;11.80;;
37299;SDS011;23184;51.902;12.836;2023-02-07T04:58:18;27.42;;;11.40;;
37299;SDS011;23184;51.902;12.836;2023-02-07T05:00:45;36.38;;;12.05;;
37299;SDS011;23184;51.902;12.836;2023-02-07T05:03:11;26.42;;;10.57;;
37299;SDS011;23184;51.902;12.836;2023-02-07T05:05:37;32.45;;;11.85;;
37299;SDS011;23184;51.902;12.836;2023-02-07T05:08:04;31.05;;;11.95;;
37299;SDS011;23184;51.902;12.836;2023-02-07T05:10:30;32.40;;;12.15;;
37299;SDS011;23184;51.902;12.836;2023-02-07T05:12:55;27.02;;;11.02;;
37299;SDS011;23184;51.902;12.836;2023-02-07T05:15:21;27.98;;;10.30;;
37299;SDS011;23184;51.902;12.836;2023-02-07T05:17:46;33.53;;;12.30;;
37299;SDS011;23184;51.902;12.836;2023-02-07T05:20:12;25.15;;;11.07;;
37299;SDS011;23184;51.902;12.836;2023-02-07T05:22:38;28.35;;;11.05;;
37299;SDS011;23184;51.902;12.836;2023-02-07T05:25:03;29.85;;;11.70;;
37299;SDS011;23184;51.902;12.836;2023-02-07T05:27:29;32.80;;;12.48;;
37299;SDS011;23184;51.902;12.836;2023-02-07T05:29:55;35.78;;;13.98;;
37299;SDS011;23184;51.902;12.836;2023-02-07T05:32:20;32.92;;;12.05;;
37299;SDS011;23184;51.902;12.836;2023-02-07T05:35:04;34.47;;;13.00;;
37299;SDS011;23184;51.902;12.836;2023-02-07T05:37:30;33.10;;;13.02;;
37299;SDS011;23184;51.902;12.836;2023-02-07T05:39:56;33.95;;;12.02;;
37299;SDS011;23184;51.902;12.836;2023-02-07T05:42:21;36.45;;;12.00;;
37299;SDS011;23184;51.902;12.836;2023-02-07T05:44:46;30.00;;;11.77;;
37299;SDS011;23184;51.902;12.836;2023-02-07T05:47:12;26.17;;;11.18;;
37299;SDS011;23184;51.902;12.836;2023-02-07T05:49:38;31.33;;;11.48;;
37299;SDS011;23184;51.902;12.836;2023-02-07T05:52:03;32.13;;;11.80;;
37299;SDS011;23184;51.902;12.836;2023-02-07T05:54:29;31.70;;;11.65;;
37299;SDS011;23184;51.902;12.836;2023-02-07T05:56:55;33.67;;;12.55;;
37299;SDS011;23184;51.902;12.836;2023-02-07T05:59:21;31.13;;;11.55;;
37299;SDS011;23184;51.902;12.836;2023-02-07T06:01:47;34.53;;;13.52;;
37299;SDS011;23184;51.902;12.836;2023-02-07T06:04:12;32.50;;;12.43;;
37299;SDS011;23184;51.902;12.836;2023-02-07T06:06:38;32.70;;;13.20;;
37299;SDS011;23184;51.902;12.836;2023-02-07T06:09:03;32.88;;;12.10;;
37299;SDS011;23184;51.902;12.836;2023-02-07T06:11:29;32.92;;;11.90;;
37299;SDS011;23184;51.902;12.836;2023-02-07T06:13:54;31.77;;;12.35;;
37299;SDS011;23184;51.902;12.836;2023-02-07T06:16:20;31.77;;;12.55;;
37299;SDS011;23184;51.902;12.836;2023-02-07T06:18:45;30.73;;;11.80;;
37299;SDS011;23184;51.902;12.836;2023-02-07T06:21:11;30.48;;;10.68;;
37299;SDS011;23184;51.902;12.836;2023-02-07T06:23:36;31.60;;;11.65;;
37299;SDS011;23184;51.902;12.836;2023-02-07T06:26:02;34.40;;;12.20;;
37299;SDS011;23184;51.902;12.836;2023-02-07T06:28:27;28.95;;;12.27;;
37299;SDS011;23184;51.902;12.836;2023-02-07T06:30:53;33.08;;;12.85;;
37299;SDS011;23184;51.902;12.836;2023-02-07T06:33:18;28.38;;;10.38;;
37299;SDS011;23184;51.902;12.836;2023-02-07T06:35:44;31.55;;;11.88;;
37299;SDS011;23184;51.902;12.836;2023-02-07T06:38:13;29.67;;;10.82;;
37299;SDS011;23184;51.902;12.836;2023-02-07T06:40:39;31.38;;;11.35;;
37299;SDS011;23184;51.902;12.836;2023-02-07T06:43:06;28.05;;;11.25;;
37299;SDS011;23184;51.902;12.836;2023-02-07T06:45:31;32.65;;;11.43;;
37299;SDS011;23184;51.902;12.836;2023-02-07T06:47:57;29.13;;;11.27;;
37299;SDS011;23184;51.902;12.836;2023-02-07T06:50:22;32.63;;;12.40;;
37299;SDS011;23184;51.902;12.836;2023-02-07T06:52:48;33.53;;;12.35;;
37299;SDS011;23184;51.902;12.836;2023-02-07T06:55:13;31.40;;;11.90;;
37299;SDS011;23184;51.902;12.836;2023-02-07T06:57:39;31.55;;;11.07;;
37299;SDS011;23184;51.902;12.836;2023-02-07T07:00:05;27.38;;;10.10;;
37299;SDS011;23184;51.902;12.836;2023-02-07T07:02:30;27.10;;;9.98;;
37299;SDS011;23184;51.902;12.836;2023-02-07T07:04:56;34.92;;;12.18;;
37299;SDS011;23184;51.902;12.836;2023-02-07T07:07:21;25.95;;;10.60;;
37299;SDS011;23184;51.902;12.836;2023-02-07T07:09:47;21.67;;;9.88;;
37299;SDS011;23184;51.902;12.836;2023-02-07T07:12:13;22.90;;;9.95;;
37299;SDS011;23184;51.902;12.836;2023-02-07T07:14:38;34.10;;;12.10;;
37299;SDS011;23184;51.902;12.836;2023-02-07T07:17:04;28.20;;;10.38;;
37299;SDS011;23184;51.902;12.836;2023-02-07T07:19:30;33.75;;;12.23;;
37299;SDS011;23184;51.902;12.836;2023-02-07T07:21:55;29.60;;;10.95;;
37299;SDS011;23184;51.902;12.836;2023-02-07T07:24:22;27.30;;;10.20;;
37299;SDS011;23184;51.902;12.836;2023-02-07T07:26:48;33.10;;;11.63;;
37299;SDS011;23184;51.902;12.836;2023-02-07T07:29:14;28.13;;;10.60;;
37299;SDS011;23184;51.902;12.836;2023-02-07T07:31:40;30.98;;;11.32;;
37299;SDS011;23184;51.902;12.836;2023-02-07T07:34:05;29.23;;;11.10;;
37299;SDS011;23184;51.902;12.836;2023-02-07T07:36:30;31.58;;;11.82;;
37299;SDS011;23184;51.902;12.836;2023-02-07T07:38:56;30.55;;;12.30;;
37299;SDS011;23184;51.902;12.836;2023-02-07T07:41:22;32.30;;;11.90;;
37299;SDS011;23184;51.902;12.836;2023-02-07T07:43:47;35.40;;;12.75;;
37299;SDS011;23184;51.902;12.836;2023-02-07T07:46:13;29.40;;;10.18;;
37299;SDS011;23184;51.902;12.836;2023-02-07T07:48:38;31.25;;;11.98;;
37299;SDS011;23184;51.902;12.836;2023-02-07T07:51:04;28.80;;;11.60;;
37299;SDS011;23184;51.902;12.836;2023-02-07T07:53:29;30.52;;;11.65;;
37299;SDS011;23184;51.902;12.836;2023-02-07T07:55:55;30.73;;;11.30;;
37299;SDS011;23184;51.902;12.836;2023-02-07T07:58:22;32.72;;;10.80;;
37299;SDS011;23184;51.902;12.836;2023-02-07T08:00:48;35.55;;;12.90;;
37299;SDS011;23184;51.902;12.836;2023-02-07T08:03:14;28.35;;;11.18;;
37299;SDS011;23184;51.902;12.836;2023-02-07T08:05:42;31.27;;;12.18;;
37299;SDS011;23184;51.902;12.836;2023-02-07T08:08:08;30.05;;;11.23;;
37299;SDS011;23184;51.902;12.836;2023-02-07T08:10:34;31.17;;;11.40;;
37299;SDS011;23184;51.902;12.836;2023-02-07T08:12:59;40.22;;;15.13;;
37299;SDS011;23184;51.902;12.836;2023-02-07T08:15:25;32.03;;;12.98;;
37299;SDS011;23184;51.902;12.836;2023-02-07T08:17:51;32.25;;;12.77;;
37299;SDS011;23184;51.902;12.836;2023-02-07T08:20:16;32.75;;;13.48;;
37299;SDS011;23184;51.902;12.836;2023-02-07T08:22:42;33.72;;;13.88;;
37299;SDS011;23184;51.902;12.836;2023-02-07T08:25:07;32.88;;;13.27;;
37299;SDS011;23184;51.902;12.836;2023-02-07T08:27:33;28.92;;;13.25;;
37299;SDS011;23184;51.902;12.836;2023-02-07T08:29:58;39.15;;;15.52;;
37299;SDS011;23184;51.902;12.836;2023-02-07T08:32:24;43.17;;;15.80;;
37299;SDS011;23184;51.902;12.836;2023-02-07T08:34:49;36.83;;;16.52;;
37299;SDS011;23184;51.902;12.836;2023-02-07T08:37:15;41.83;;;16.00;;
37299;SDS011;23184;51.902;12.836;2023-02-07T08:39:40;38.40;;;15.65;;
37299;SDS011;23184;51.902;12.836;2023-02-07T08:42:06;36.05;;;16.80;;
37299;SDS011;23184;51.902;12.836;2023-02-07T08:44:32;42.28;;;17.10;;
37299;SDS011;23184;51.902;12.836;2023-02-07T08:46:58;41.03;;;16.08;;
37299;SDS011;23184;51.902;12.836;2023-02-07T08:49:24;37.45;;;17.35;;
37299;SDS011;23184;51.902;12.836;2023-02-07T08:51:50;42.08;;;17.63;;
37299;SDS011;23184;51.902;12.836;2023-02-07T08:54:16;36.03;;;16.50;;
37299;SDS011;23184;51.902;12.836;2023-02-07T08:56:42;36.45;;;15.88;;
37299;SDS011;23184;51.902;12.836;2023-02-07T08:59:08;38.70;;;15.52;;
37299;SDS011;23184;51.902;12.836;2023-02-07T09:01:33;30.65;;;14.50;;
37299;SDS011;23184;51.902;12.836;2023-02-07T09:03:59;32.80;;;14.88;;
37299;SDS011;23184;51.902;12.836;2023-02-07T09:06:25;31.38;;;15.45;;
37299;SDS011;23184;51.902;12.836;2023-02-07T09:08:50;31.67;;;15.55;;
37299;SDS011;23184;51.902;12.836;2023-02-07T09:11:16;28.95;;;14.82;;
37299;SDS011;23184;51.902;12.836;2023-02-07T09:13:43;31.05;;;14.40;;
37299;SDS011;23184;51.902;12.836;2023-02-07T09:16:10;33.13;;;14.38;;
37299;SDS011;23184;51.902;12.836;2023-02-07T09:18:37;31.48;;;15.05;;
37299;SDS011;23184;51.902;12.836;2023-02-07T09:21:02;32.53;;;14.88;;
37299;SDS011;23184;51.902;12.836;2023-02-07T09:23:29;32.65;;;13.90;;
37299;SDS011;23184;51.902;12.836;2023-02-07T09:25:58;28.58;;;13.90;;
37299;SDS011;23184;51.902;12.836;2023-02-07T09:28:26;28.70;;;14.38;;
37299;SDS011;23184;51.902;12.836;2023-02-07T09:30:51;27.15;;;13.85;;
37299;SDS011;23184;51.902;12.836;2023-02-07T09:33:17;26.67;;;14.30;;
37299;SDS011;23184;51.902;12.836;2023-02-07T09:35:43;28.75;;;14.40;;
37299;SDS011;23184;51.902;12.836;2023-02-07T09:38:15;30.40;;;15.15;;
37299;SDS011;23184;51.902;12.836;2023-02-07T09:40:45;31.58;;;16.67;;
37299;SDS011;23184;51.902;12.836;2023-02-07T09:45:39;31.77;;;15.50;;
37299;SDS011;23184;51.902;12.836;2023-02-07T09:48:44;28.70;;;15.18;;
37299;SDS011;23184;51.902;12.836;2023-02-07T09:51:12;28.55;;;15.18;;
37299;SDS011;23184;51.902;12.836;2023-02-07T09:53:42;35.10;;;15.98;;
37299;SDS011;23184;51.902;12.836;2023-02-07T09:56:14;32.25;;;17.17;;
37299;SDS011;23184;51.902;12.836;2023-02-07T10:01:18;30.17;;;15.93;;
37299;SDS011;23184;51.902;12.836;2023-02-07T10:03:52;33.38;;;17.15;;
37299;SDS011;23184;51.902;12.836;2023-02-07T10:06:32;72.80;;;29.17;;
37299;SDS011;23184;51.902;12.836;2023-02-07T10:08:59;53.20;;;25.13;;
37299;SDS011;23184;51.902;12.836;2023-02-07T10:11:40;64.63;;;30.40;;
37299;SDS011;23184;51.902;12.836;2023-02-07T10:14:27;46.83;;;22.85;;
37299;SDS011;23184;51.902;12.836;2023-02-07T10:23:05;44.83;;;22.30;;
37299;SDS011;23184;51.902;12.836;2023-02-07T10:31:15;40.70;;;19.35;;
37299;SDS011;23184;51.902;12.836;2023-02-07T10:33:48;45.45;;;21.48;;
37299;SDS011;23184;51.902;12.836;2023-02-07T10:36:18;45.88;;;17.70;;
37299;SDS011;23184;51.902;12.836;2023-02-07T10:41:26;34.78;;;16.85;;
37299;SDS011;23184;51.902;12.836;2023-02-07T10:44:02;37.03;;;16.08;;
37299;SDS011;23184;51.902;12.836;2023-02-07T10:46:34;33.50;;;15.85;;
37299;SDS011;23184;51.902;12.836;2023-02-07T10:49:01;36.58;;;16.13;;
37299;SDS011;23184;51.902;12.836;2023-02-07T10:51:33;38.40;;;16.45;;
37299;SDS011;23184;51.902;12.836;2023-02-07T10:54:23;41.75;;;18.60;;
37299;SDS011;23184;51.902;12.836;2023-02-07T10:56:49;39.85;;;15.77;;
37299;SDS011;23184;51.902;12.836;2023-02-07T10:59:31;35.47;;;16.33;;
37299;SDS011;23184;51.902;12.836;2023-02-07T11:02:00;35.13;;;16.02;;
37299;SDS011;23184;51.902;12.836;2023-02-07T11:04:46;34.03;;;15.98;;
37299;SDS011;23184;51.902;12.836;2023-02-07T11:07:13;35.08;;;16.02;;
37299;SDS011;23184;51.902;12.836;2023-02-07T11:09:39;35.50;;;17.80;;
37299;SDS011;23184;51.902;12.836;2023-02-07T11:12:21;38.72;;;15.82;;
37299;SDS011;23184;51.902;12.836;2023-02-07T11:14:59;37.10;;;16.63;;
37299;SDS011;23184;51.902;12.836;2023-02-07T11:17:30;35.92;;;16.88;;
37299;SDS011;23184;51.902;12.836;2023-02-07T11:20:01;36.83;;;15.25;;
37299;SDS011;23184;51.902;12.836;2023-02-07T11:22:29;45.20;;;18.30;;
37299;SDS011;23184;51.902;12.836;2023-02-07T11:24:58;37.25;;;15.60;;
37299;SDS011;23184;51.902;12.836;2023-02-07T11:27:27;32.20;;;15.35;;
37299;SDS011;23184;51.902;12.836;2023-02-07T11:29:57;33.00;;;14.85;;
37299;SDS011;23184;51.902;12.836;2023-02-07T11:32:27;33.58;;;14.98;;
37299;SDS011;23184;51.902;12.836;2023-02-07T11:34:54;37.60;;;15.55;;
37299;SDS011;23184;51.902;12.836;2023-02-07T11:37:29;31.83;;;15.45;;
37299;SDS011;23184;51.902;12.836;2023-02-07T11:40:43;36.20;;;14.88;;
37299;SDS011;23184;51.902;12.836;2023-02-07T11:45:50;32.05;;;16.17;;
37299;SDS011;23184;51.902;12.836;2023-02-07T11:48:27;31.25;;;16.20;;
37299;SDS011;23184;51.902;12.836;2023-02-07T11:50:55;29.20;;;14.98;;
37299;SDS011;23184;51.902;12.836;2023-02-07T11:53:24;31.13;;;15.35;;
37299;SDS011;23184;51.902;12.836;2023-02-07T11:55:53;32.60;;;15.63;;
37299;SDS011;23184;51.902;12.836;2023-02-07T11:58:36;30.75;;;14.98;;
37299;SDS011;23184;51.902;12.836;2023-02-07T12:01:05;32.97;;;15.77;;
37299;SDS011;23184;51.902;12.836;2023-02-07T12:03:32;33.00;;;17.52;;
37299;SDS011;23184;51.902;12.836;2023-02-07T12:06:05;33.58;;;16.42;;
37299;SDS011;23184;51.902;12.836;2023-02-07T12:08:38;29.02;;;14.65;;
37299;SDS011;23184;51.902;12.836;2023-02-07T12:11:08;29.95;;;14.68;;
37299;SDS011;23184;51.902;12.836;2023-02-07T12:16:20;53.05;;;17.73;;
37299;SDS011;23184;51.902;12.836;2023-02-07T12:19:00;34.13;;;15.43;;
37299;SDS011;23184;51.902;12.836;2023-02-07T12:21:46;34.10;;;15.95;;
37299;SDS011;23184;51.902;12.836;2023-02-07T12:24:27;33.22;;;17.10;;
37299;SDS011;23184;51.902;12.836;2023-02-07T12:29:46;36.60;;;17.13;;
37299;SDS011;23184;51.902;12.836;2023-02-07T12:35:20;37.53;;;16.40;;
37299;SDS011;23184;51.902;12.836;2023-02-07T12:37:53;29.08;;;15.13;;
37299;SDS011;23184;51.902;12.836;2023-02-07T12:43:20;27.50;;;14.80;;
37299;SDS011;23184;51.902;12.836;2023-02-07T12:51:02;30.42;;;15.15;;
37299;SDS011;23184;51.902;12.836;2023-02-07T12:56:29;31.48;;;14.27;;
37299;SDS011;23184;51.902;12.836;2023-02-07T12:59:09;30.00;;;15.30;;
37299;SDS011;23184;51.902;12.836;2023-02-07T13:09:45;28.83;;;14.82;;
37299;SDS011;23184;51.902;12.836;2023-02-07T13:12:43;26.98;;;14.15;;
37299;SDS011;23184;51.902;12.836;2023-02-07T13:15:30;26.45;;;14.07;;
37299;SDS011;23184;51.902;12.836;2023-02-07T13:18:06;28.90;;;13.63;;
37299;SDS011;23184;51.902;12.836;2023-02-07T13:23:18;35.30;;;16.40;;
37299;SDS011;23184;51.902;12.836;2023-02-07T13:25:47;30.20;;;15.77;;
37299;SDS011;23184;51.902;12.836;2023-02-07T13:28:21;55.42;;;22.55;;
37299;SDS011;23184;51.902;12.836;2023-02-07T13:30:51;122.18;;;36.90;;
37299;SDS011;23184;51.902;12.836;2023-02-07T13:35:52;37.83;;;15.75;;
37299;SDS011;23184;51.902;12.836;2023-02-07T13:38:35;33.28;;;15.95;;
37299;SDS011;23184;51.902;12.836;2023-02-07T13:41:22;33.00;;;15.38;;
37299;SDS011;23184;51.902;12.836;2023-02-07T13:44:02;34.22;;;15.02;;
37299;SDS011;23184;51.902;12.836;2023-02-07T13:46:52;28.98;;;14.63;;
37299;SDS011;23184;51.902;12.836;2023-02-07T13:49:42;29.02;;;15.18;;
37299;SDS011;23184;51.902;12.836;2023-02-07T13:52:20;30.15;;;14.50;;
37299;SDS011;23184;51.902;12.836;2023-02-07T14:00:20;26.15;;;13.70;;
37299;SDS011;23184;51.902;12.836;2023-02-07T14:02:49;27.70;;;14.23;;
37299;SDS011;23184;51.902;12.836;2023-02-07T14:05:28;30.38;;;14.23;;
37299;SDS011;23184;51.902;12.836;2023-02-07T14:10:45;23.55;;;12.63;;
37299;SDS011;23184;51.902;12.836;2023-02-07T14:13:20;29.70;;;13.80;;
37299;SDS011;23184;51.902;12.836;2023-02-07T14:21:02;27.55;;;14.13;;
37299;SDS011;23184;51.902;12.836;2023-02-07T14:23:48;37.55;;;18.23;;
37299;SDS011;23184;51.902;12.836;2023-02-07T14:31:54;31.13;;;15.90;;
37299;SDS011;23184;51.902;12.836;2023-02-07T14:34:23;31.73;;;16.50;;
37299;SDS011;23184;51.902;12.836;2023-02-07T14:36:54;32.35;;;15.98;;
37299;SDS011;23184;51.902;12.836;2023-02-07T14:39:27;31.23;;;15.32;;
37299;SDS011;23184;51.902;12.836;2023-02-07T14:42:00;28.67;;;15.20;;
37299;SDS011;23184;51.902;12.836;2023-02-07T14:44:41;28.55;;;15.60;;
37299;SDS011;23184;51.902;12.836;2023-02-07T14:47:14;28.58;;;16.05;;
37299;SDS011;23184;51.902;12.836;2023-02-07T14:49:48;30.15;;;15.35;;
37299;SDS011;23184;51.902;12.836;2023-02-07T14:52:24;26.13;;;14.93;;
37299;SDS011;23184;51.902;12.836;2023-02-07T14:54:54;27.30;;;14.82;;
37299;SDS011;23184;51.902;12.836;2023-02-07T15:05:18;22.50;;;13.18;;
37299;SDS011;23184;51.902;12.836;2023-02-07T15:08:04;21.50;;;13.82;;
37299;SDS011;23184;51.902;12.836;2023-02-07T15:10:39;23.08;;;13.57;;
37299;SDS011;23184;51.902;12.836;2023-02-07T15:13:27;22.67;;;14.18;;
37299;SDS011;23184;51.902;12.836;2023-02-07T15:15:57;23.73;;;14.02;;
37299;SDS011;23184;51.902;12.836;2023-02-07T15:18:30;22.17;;;13.88;;
37299;SDS011;23184;51.902;12.836;2023-02-07T15:20:58;23.92;;;14.23;;
37299;SDS011;23184;51.902;12.836;2023-02-07T15:23:25;27.15;;;24.35;;
37299;SDS011;23184;51.902;12.836;2023-02-07T15:25:52;24.67;;;15.00;;
37299;SDS011;23184;51.902;12.836;2023-02-07T15:28:22;23.55;;;14.48;;
37299;SDS011;23184;51.902;12.836;2023-02-07T15:30:56;25.42;;;14.15;;
37299;SDS011;23184;51.902;12.836;2023-02-07T15:33:23;22.67;;;13.60;;
37299;SDS011;23184;51.902;12.836;2023-02-07T15:35:50;26.67;;;12.95;;
37299;SDS011;23184;51.902;12.836;2023-02-07T15:38:20;27.13;;;14.95;;
37299;SDS011;23184;51.902;12.836;2023-02-07T15:40:48;46.72;;;21.40;;
37299;SDS011;23184;51.902;12.836;2023-02-07T15:43:26;28.45;;;16.52;;
37299;SDS011;23184;51.902;12.836;2023-02-07T15:46:03;26.23;;;15.55;;
37299;SDS011;23184;51.902;12.836;2023-02-07T15:48:32;17.17;;;9.80;;
37299;SDS011;23184;51.902;12.836;2023-02-07T15:51:08;23.27;;;13.35;;
37299;SDS011;23184;51.902;12.836;2023-02-07T15:53:35;25.60;;;13.95;;
37299;SDS011;23184;51.902;12.836;2023-02-07T15:56:03;23.75;;;13.75;;
37299;SDS011;23184;51.902;12.836;2023-02-07T15:58:33;24.52;;;12.10;;
37299;SDS011;23184;51.902;12.836;2023-02-07T16:01:01;29.10;;;17.05;;
37299;SDS011;23184;51.902;12.836;2023-02-07T16:03:40;33.88;;;17.25;;
37299;SDS011;23184;51.902;12.836;2023-02-07T16:08:50;34.47;;;17.45;;
37299;SDS011;23184;51.902;12.836;2023-02-07T16:14:16;32.35;;;17.38;;
37299;SDS011;23184;51.902;12.836;2023-02-07T16:21:39;34.35;;;17.10;;
37299;SDS011;23184;51.902;12.836;2023-02-07T16:24:07;32.38;;;16.02;;
37299;SDS011;23184;51.902;12.836;2023-02-07T16:26:39;33.25;;;16.25;;
37299;SDS011;23184;51.902;12.836;2023-02-07T16:29:05;35.28;;;16.25;;
37299;SDS011;23184;51.902;12.836;2023-02-07T16:31:32;35.65;;;17.08;;
37299;SDS011;23184;51.902;12.836;2023-02-07T16:33:58;37.00;;;17.70;;